sensor_id;sensor_type;location;lat;lon;timestamp;P1;durP1;ratioP1;P2;durP2;ratioP2
76552;SDS011;65395;53.168;18.156;2023-10-08T00:01:54;7.80;;;1.60;;
76552;SDS011;65395;53.168;18.156;2023-10-08T00:04:22;7.00;;;2.80;;
76552;SDS011;65395;53.168;18.156;2023-10-08T00:06:49;12.10;;;1.80;;
76552;SDS011;65395;53.168;18.156;2023-10-08T00:09:18;8.80;;;1.60;;
76552;SDS011;65395;53.168;18.156;2023-10-08T00:11:47;9.00;;;1.90;;
76552;SDS011;65395;53.168;18.156;2023-10-08T00:14:19;7.60;;;1.40;;
76552;SDS011;65395;53.168;18.156;2023-10-08T00:16:47;7.50;;;1.70;;
76552;SDS011;65395;53.168;18.156;2023-10-08T00:19:16;11.50;;;2.20;;
76552;SDS011;65395;53.168;18.156;2023-10-08T00:21:44;6.00;;;2.00;;
76552;SDS011;65395;53.168;18.156;2023-10-08T00:24:12;6.50;;;1.40;;
76552;SDS011;65395;53.168;18.156;2023-10-08T00:26:38;6.70;;;1.70;;
76552;SDS011;65395;53.168;18.156;2023-10-08T00:29:08;17.60;;;2.10;;
76552;SDS011;65395;53.168;18.156;2023-10-08T00:31:43;6.80;;;1.60;;
76552;SDS011;65395;53.168;18.156;2023-10-08T00:34:11;8.10;;;1.70;;
76552;SDS011;65395;53.168;18.156;2023-10-08T00:36:40;11.00;;;1.50;;
76552;SDS011;65395;53.168;18.156;2023-10-08T00:39:08;7.50;;;1.50;;
76552;SDS011;65395;53.168;18.156;2023-10-08T00:41:42;9.90;;;1.60;;
76552;SDS011;65395;53.168;18.156;2023-10-08T00:44:11;6.80;;;1.80;;
76552;SDS011;65395;53.168;18.156;2023-10-08T00:46:42;8.50;;;1.50;;
76552;SDS011;65395;53.168;18.156;2023-10-08T00:49:17;6.20;;;1.40;;
76552;SDS011;65395;53.168;18.156;2023-10-08T00:51:51;7.20;;;1.30;;
76552;SDS011;65395;53.168;18.156;2023-10-08T00:54:30;5.80;;;1.50;;
76552;SDS011;65395;53.168;18.156;2023-10-08T00:57:06;5.10;;;1.40;;
76552;SDS011;65395;53.168;18.156;2023-10-08T00:59:33;11.20;;;1.30;;
76552;SDS011;65395;53.168;18.156;2023-10-08T01:02:11;5.20;;;1.00;;
76552;SDS011;65395;53.168;18.156;2023-10-08T01:04:41;5.70;;;1.30;;
76552;SDS011;65395;53.168;18.156;2023-10-08T01:07:10;5.20;;;1.30;;
76552;SDS011;65395;53.168;18.156;2023-10-08T01:09:42;4.30;;;1.40;;
76552;SDS011;65395;53.168;18.156;2023-10-08T01:12:15;8.70;;;1.40;;
76552;SDS011;65395;53.168;18.156;2023-10-08T01:14:49;6.10;;;1.40;;
76552;SDS011;65395;53.168;18.156;2023-10-08T01:17:20;4.20;;;1.00;;
76552;SDS011;65395;53.168;18.156;2023-10-08T01:19:51;4.60;;;1.50;;
76552;SDS011;65395;53.168;18.156;2023-10-08T01:22:23;3.60;;;1.30;;
76552;SDS011;65395;53.168;18.156;2023-10-08T01:24:51;5.60;;;1.40;;
76552;SDS011;65395;53.168;18.156;2023-10-08T01:27:18;5.20;;;1.40;;
76552;SDS011;65395;53.168;18.156;2023-10-08T01:29:54;5.60;;;1.10;;
76552;SDS011;65395;53.168;18.156;2023-10-08T01:32:21;4.20;;;1.20;;
76552;SDS011;65395;53.168;18.156;2023-10-08T01:34:49;3.60;;;1.10;;
76552;SDS011;65395;53.168;18.156;2023-10-08T01:37:16;3.80;;;0.90;;
76552;SDS011;65395;53.168;18.156;2023-10-08T01:39:44;4.20;;;0.80;;
76552;SDS011;65395;53.168;18.156;2023-10-08T01:42:12;4.50;;;1.00;;
76552;SDS011;65395;53.168;18.156;2023-10-08T01:44:47;3.10;;;1.00;;
76552;SDS011;65395;53.168;18.156;2023-10-08T01:47:15;4.20;;;0.90;;
76552;SDS011;65395;53.168;18.156;2023-10-08T01:49:43;2.30;;;0.60;;
76552;SDS011;65395;53.168;18.156;2023-10-08T01:52:12;2.30;;;0.70;;
76552;SDS011;65395;53.168;18.156;2023-10-08T01:54:47;2.80;;;0.80;;
76552;SDS011;65395;53.168;18.156;2023-10-08T01:57:15;2.60;;;0.80;;
76552;SDS011;65395;53.168;18.156;2023-10-08T01:59:43;3.20;;;0.90;;
76552;SDS011;65395;53.168;18.156;2023-10-08T02:02:10;3.10;;;0.80;;
76552;SDS011;65395;53.168;18.156;2023-10-08T02:04:39;4.00;;;1.00;;
76552;SDS011;65395;53.168;18.156;2023-10-08T02:07:06;2.40;;;0.70;;
76552;SDS011;65395;53.168;18.156;2023-10-08T02:09:34;2.00;;;0.60;;
76552;SDS011;65395;53.168;18.156;2023-10-08T02:12:01;2.40;;;0.60;;
76552;SDS011;65395;53.168;18.156;2023-10-08T02:14:30;1.50;;;0.50;;
76552;SDS011;65395;53.168;18.156;2023-10-08T02:16:58;1.40;;;0.50;;
76552;SDS011;65395;53.168;18.156;2023-10-08T02:19:30;4.70;;;0.60;;
76552;SDS011;65395;53.168;18.156;2023-10-08T02:21:57;2.50;;;0.50;;
76552;SDS011;65395;53.168;18.156;2023-10-08T02:24:24;1.60;;;0.50;;
76552;SDS011;65395;53.168;18.156;2023-10-08T02:26:52;1.90;;;0.50;;
76552;SDS011;65395;53.168;18.156;2023-10-08T02:29:24;1.20;;;0.40;;
76552;SDS011;65395;53.168;18.156;2023-10-08T02:31:52;1.00;;;0.50;;
76552;SDS011;65395;53.168;18.156;2023-10-08T02:34:20;1.90;;;0.50;;
76552;SDS011;65395;53.168;18.156;2023-10-08T02:36:47;2.00;;;0.60;;
76552;SDS011;65395;53.168;18.156;2023-10-08T02:39:14;1.80;;;0.50;;
76552;SDS011;65395;53.168;18.156;2023-10-08T02:41:48;1.40;;;0.40;;
76552;SDS011;65395;53.168;18.156;2023-10-08T02:44:16;2.40;;;0.60;;
76552;SDS011;65395;53.168;18.156;2023-10-08T02:46:44;1.90;;;0.70;;
76552;SDS011;65395;53.168;18.156;2023-10-08T02:49:14;3.50;;;1.70;;
76552;SDS011;65395;53.168;18.156;2023-10-08T02:51:47;2.10;;;0.70;;
76552;SDS011;65395;53.168;18.156;2023-10-08T02:54:17;1.20;;;0.40;;
76552;SDS011;65395;53.168;18.156;2023-10-08T02:56:46;0.60;;;0.40;;
76552;SDS011;65395;53.168;18.156;2023-10-08T02:59:18;1.80;;;0.90;;
76552;SDS011;65395;53.168;18.156;2023-10-08T03:01:48;1.70;;;0.80;;
76552;SDS011;65395;53.168;18.156;2023-10-08T03:04:16;1.60;;;0.70;;
76552;SDS011;65395;53.168;18.156;2023-10-08T03:06:45;4.90;;;2.20;;
76552;SDS011;65395;53.168;18.156;2023-10-08T03:09:17;3.70;;;0.50;;
76552;SDS011;65395;53.168;18.156;2023-10-08T03:11:48;1.50;;;0.60;;
76552;SDS011;65395;53.168;18.156;2023-10-08T03:14:17;2.40;;;0.70;;
76552;SDS011;65395;53.168;18.156;2023-10-08T03:16:50;1.50;;;0.90;;
76552;SDS011;65395;53.168;18.156;2023-10-08T03:19:19;1.30;;;0.30;;
76552;SDS011;65395;53.168;18.156;2023-10-08T03:21:48;1.50;;;0.30;;
76552;SDS011;65395;53.168;18.156;2023-10-08T03:24:18;0.80;;;0.30;;
76552;SDS011;65395;53.168;18.156;2023-10-08T03:26:55;2.60;;;0.40;;
76552;SDS011;65395;53.168;18.156;2023-10-08T03:29:33;1.80;;;0.20;;
76552;SDS011;65395;53.168;18.156;2023-10-08T03:32:08;1.20;;;0.30;;
76552;SDS011;65395;53.168;18.156;2023-10-08T03:34:45;1.20;;;0.40;;
76552;SDS011;65395;53.168;18.156;2023-10-08T03:37:17;1.60;;;0.50;;
76552;SDS011;65395;53.168;18.156;2023-10-08T03:39:48;1.70;;;0.40;;
76552;SDS011;65395;53.168;18.156;2023-10-08T03:42:24;0.70;;;0.30;;
76552;SDS011;65395;53.168;18.156;2023-10-08T03:44:52;1.50;;;0.40;;
76552;SDS011;65395;53.168;18.156;2023-10-08T03:47:22;0.80;;;0.30;;
76552;SDS011;65395;53.168;18.156;2023-10-08T03:49:52;0.70;;;0.30;;
76552;SDS011;65395;53.168;18.156;2023-10-08T03:52:20;0.80;;;0.50;;
76552;SDS011;65395;53.168;18.156;2023-10-08T03:54:51;1.40;;;0.30;;
76552;SDS011;65395;53.168;18.156;2023-10-08T03:57:28;1.20;;;0.40;;
76552;SDS011;65395;53.168;18.156;2023-10-08T04:00:08;1.00;;;0.40;;
76552;SDS011;65395;53.168;18.156;2023-10-08T04:02:42;2.10;;;0.30;;
76552;SDS011;65395;53.168;18.156;2023-10-08T04:05:21;0.80;;;0.40;;
76552;SDS011;65395;53.168;18.156;2023-10-08T04:07:53;2.30;;;0.40;;
76552;SDS011;65395;53.168;18.156;2023-10-08T04:10:38;0.90;;;0.20;;
76552;SDS011;65395;53.168;18.156;2023-10-08T04:13:25;1.00;;;0.30;;
76552;SDS011;65395;53.168;18.156;2023-10-08T04:15:52;1.20;;;0.40;;
76552;SDS011;65395;53.168;18.156;2023-10-08T04:18:19;2.90;;;0.30;;
76552;SDS011;65395;53.168;18.156;2023-10-08T04:20:46;2.10;;;0.30;;
76552;SDS011;65395;53.168;18.156;2023-10-08T04:23:23;1.40;;;0.30;;
76552;SDS011;65395;53.168;18.156;2023-10-08T04:25:50;0.40;;;0.20;;
76552;SDS011;65395;53.168;18.156;2023-10-08T04:28:20;0.90;;;0.30;;
76552;SDS011;65395;53.168;18.156;2023-10-08T04:30:48;1.10;;;0.30;;
76552;SDS011;65395;53.168;18.156;2023-10-08T04:33:16;1.00;;;0.20;;
76552;SDS011;65395;53.168;18.156;2023-10-08T04:35:45;2.70;;;0.20;;
76552;SDS011;65395;53.168;18.156;2023-10-08T04:38:23;2.00;;;0.30;;
76552;SDS011;65395;53.168;18.156;2023-10-08T04:40:52;2.50;;;0.40;;
76552;SDS011;65395;53.168;18.156;2023-10-08T04:43:21;0.70;;;0.30;;
76552;SDS011;65395;53.168;18.156;2023-10-08T04:45:52;1.20;;;0.20;;
76552;SDS011;65395;53.168;18.156;2023-10-08T04:48:19;0.90;;;0.40;;
76552;SDS011;65395;53.168;18.156;2023-10-08T04:50:47;0.70;;;0.30;;
76552;SDS011;65395;53.168;18.156;2023-10-08T04:53:26;1.90;;;0.40;;
76552;SDS011;65395;53.168;18.156;2023-10-08T04:56:03;0.80;;;0.30;;
76552;SDS011;65395;53.168;18.156;2023-10-08T04:58:32;1.50;;;0.30;;
76552;SDS011;65395;53.168;18.156;2023-10-08T05:01:02;3.30;;;0.40;;
76552;SDS011;65395;53.168;18.156;2023-10-08T05:03:40;0.60;;;0.30;;
76552;SDS011;65395;53.168;18.156;2023-10-08T05:06:20;1.80;;;0.40;;
76552;SDS011;65395;53.168;18.156;2023-10-08T05:09:06;1.00;;;0.30;;
76552;SDS011;65395;53.168;18.156;2023-10-08T05:11:45;0.70;;;0.20;;
76552;SDS011;65395;53.168;18.156;2023-10-08T05:14:33;0.40;;;0.30;;
76552;SDS011;65395;53.168;18.156;2023-10-08T05:17:06;0.90;;;0.30;;
76552;SDS011;65395;53.168;18.156;2023-10-08T05:19:38;1.70;;;0.40;;
76552;SDS011;65395;53.168;18.156;2023-10-08T05:22:15;0.90;;;0.40;;
76552;SDS011;65395;53.168;18.156;2023-10-08T05:24:45;3.70;;;0.50;;
76552;SDS011;65395;53.168;18.156;2023-10-08T05:27:23;1.20;;;0.30;;
76552;SDS011;65395;53.168;18.156;2023-10-08T05:30:04;0.40;;;0.30;;
76552;SDS011;65395;53.168;18.156;2023-10-08T05:32:43;2.20;;;0.40;;
76552;SDS011;65395;53.168;18.156;2023-10-08T05:35:30;3.20;;;0.50;;
76552;SDS011;65395;53.168;18.156;2023-10-08T05:38:17;0.80;;;0.30;;
76552;SDS011;65395;53.168;18.156;2023-10-08T05:40:50;2.90;;;0.50;;
76552;SDS011;65395;53.168;18.156;2023-10-08T05:43:38;3.40;;;0.60;;
76552;SDS011;65395;53.168;18.156;2023-10-08T05:46:21;2.70;;;0.50;;
76552;SDS011;65395;53.168;18.156;2023-10-08T05:49:08;2.90;;;0.80;;
76552;SDS011;65395;53.168;18.156;2023-10-08T05:51:55;1.20;;;0.30;;
76552;SDS011;65395;53.168;18.156;2023-10-08T05:54:41;1.50;;;0.40;;
76552;SDS011;65395;53.168;18.156;2023-10-08T05:57:18;2.30;;;0.50;;
76552;SDS011;65395;53.168;18.156;2023-10-08T06:00:04;2.70;;;0.60;;
76552;SDS011;65395;53.168;18.156;2023-10-08T06:02:44;1.20;;;0.50;;
76552;SDS011;65395;53.168;18.156;2023-10-08T06:05:29;2.00;;;0.50;;
76552;SDS011;65395;53.168;18.156;2023-10-08T06:07:59;0.80;;;0.40;;
76552;SDS011;65395;53.168;18.156;2023-10-08T06:10:38;1.20;;;0.40;;
76552;SDS011;65395;53.168;18.156;2023-10-08T06:13:11;1.20;;;0.40;;
76552;SDS011;65395;53.168;18.156;2023-10-08T06:15:43;2.40;;;0.50;;
76552;SDS011;65395;53.168;18.156;2023-10-08T06:18:15;1.30;;;0.60;;
76552;SDS011;65395;53.168;18.156;2023-10-08T06:20:45;1.30;;;0.50;;
76552;SDS011;65395;53.168;18.156;2023-10-08T06:23:13;1.40;;;0.50;;
76552;SDS011;65395;53.168;18.156;2023-10-08T06:25:46;2.70;;;0.40;;
76552;SDS011;65395;53.168;18.156;2023-10-08T06:28:15;0.80;;;0.50;;
76552;SDS011;65395;53.168;18.156;2023-10-08T06:30:47;2.50;;;0.40;;
76552;SDS011;65395;53.168;18.156;2023-10-08T06:33:15;1.50;;;0.50;;
76552;SDS011;65395;53.168;18.156;2023-10-08T06:35:42;2.20;;;0.40;;
76552;SDS011;65395;53.168;18.156;2023-10-08T06:38:11;1.00;;;0.60;;
76552;SDS011;65395;53.168;18.156;2023-10-08T06:40:41;2.00;;;0.70;;
76552;SDS011;65395;53.168;18.156;2023-10-08T06:43:09;2.80;;;0.50;;
76552;SDS011;65395;53.168;18.156;2023-10-08T06:45:48;1.20;;;0.40;;
76552;SDS011;65395;53.168;18.156;2023-10-08T06:48:19;1.30;;;0.40;;
76552;SDS011;65395;53.168;18.156;2023-10-08T06:50:48;1.70;;;0.30;;
76552;SDS011;65395;53.168;18.156;2023-10-08T06:53:15;1.50;;;0.60;;
76552;SDS011;65395;53.168;18.156;2023-10-08T06:55:44;1.90;;;0.60;;
76552;SDS011;65395;53.168;18.156;2023-10-08T06:58:14;1.20;;;0.50;;
76552;SDS011;65395;53.168;18.156;2023-10-08T07:00:42;1.10;;;0.50;;
76552;SDS011;65395;53.168;18.156;2023-10-08T07:03:16;1.80;;;0.60;;
76552;SDS011;65395;53.168;18.156;2023-10-08T07:05:45;2.50;;;1.00;;
76552;SDS011;65395;53.168;18.156;2023-10-08T07:08:21;1.90;;;1.20;;
76552;SDS011;65395;53.168;18.156;2023-10-08T07:10:50;0.80;;;0.50;;
76552;SDS011;65395;53.168;18.156;2023-10-08T07:13:18;1.30;;;0.80;;
76552;SDS011;65395;53.168;18.156;2023-10-08T07:15:48;2.50;;;0.50;;
76552;SDS011;65395;53.168;18.156;2023-10-08T07:18:16;1.50;;;0.60;;
76552;SDS011;65395;53.168;18.156;2023-10-08T07:20:52;2.70;;;0.80;;
76552;SDS011;65395;53.168;18.156;2023-10-08T07:23:21;1.70;;;0.60;;
76552;SDS011;65395;53.168;18.156;2023-10-08T07:25:51;3.80;;;0.70;;
76552;SDS011;65395;53.168;18.156;2023-10-08T07:28:19;2.10;;;0.50;;
76552;SDS011;65395;53.168;18.156;2023-10-08T07:30:46;1.30;;;0.70;;
76552;SDS011;65395;53.168;18.156;2023-10-08T07:33:15;1.80;;;0.50;;
76552;SDS011;65395;53.168;18.156;2023-10-08T07:35:46;1.40;;;0.30;;
76552;SDS011;65395;53.168;18.156;2023-10-08T07:38:26;0.60;;;0.40;;
76552;SDS011;65395;53.168;18.156;2023-10-08T07:40:55;1.20;;;0.50;;
76552;SDS011;65395;53.168;18.156;2023-10-08T07:43:22;2.60;;;0.50;;
76552;SDS011;65395;53.168;18.156;2023-10-08T07:45:49;1.00;;;0.40;;
76552;SDS011;65395;53.168;18.156;2023-10-08T07:48:16;1.10;;;0.40;;
76552;SDS011;65395;53.168;18.156;2023-10-08T07:50:43;1.40;;;0.50;;
76552;SDS011;65395;53.168;18.156;2023-10-08T07:53:13;2.70;;;0.50;;
76552;SDS011;65395;53.168;18.156;2023-10-08T07:55:45;3.10;;;0.70;;
76552;SDS011;65395;53.168;18.156;2023-10-08T07:58:14;2.20;;;0.50;;
76552;SDS011;65395;53.168;18.156;2023-10-08T08:00:42;0.70;;;0.30;;
76552;SDS011;65395;53.168;18.156;2023-10-08T08:03:19;0.80;;;0.40;;
76552;SDS011;65395;53.168;18.156;2023-10-08T08:05:47;3.20;;;0.90;;
76552;SDS011;65395;53.168;18.156;2023-10-08T08:08:15;2.70;;;0.70;;
76552;SDS011;65395;53.168;18.156;2023-10-08T08:10:44;2.00;;;0.60;;
76552;SDS011;65395;53.168;18.156;2023-10-08T08:13:11;1.30;;;0.50;;
76552;SDS011;65395;53.168;18.156;2023-10-08T08:15:39;2.00;;;0.40;;
76552;SDS011;65395;53.168;18.156;2023-10-08T08:18:09;1.80;;;0.60;;
76552;SDS011;65395;53.168;18.156;2023-10-08T08:20:48;2.60;;;0.40;;
76552;SDS011;65395;53.168;18.156;2023-10-08T08:23:15;0.60;;;0.40;;
76552;SDS011;65395;53.168;18.156;2023-10-08T08:25:42;2.20;;;0.40;;
76552;SDS011;65395;53.168;18.156;2023-10-08T08:28:12;2.00;;;0.60;;
76552;SDS011;65395;53.168;18.156;2023-10-08T08:30:44;2.00;;;0.40;;
76552;SDS011;65395;53.168;18.156;2023-10-08T08:33:17;1.60;;;0.50;;
76552;SDS011;65395;53.168;18.156;2023-10-08T08:38:27;2.80;;;0.50;;
76552;SDS011;65395;53.168;18.156;2023-10-08T08:41:02;0.90;;;0.30;;
76552;SDS011;65395;53.168;18.156;2023-10-08T08:43:34;1.80;;;0.60;;
76552;SDS011;65395;53.168;18.156;2023-10-08T08:46:03;2.00;;;0.50;;
76552;SDS011;65395;53.168;18.156;2023-10-08T08:48:33;2.00;;;0.40;;
76552;SDS011;65395;53.168;18.156;2023-10-08T08:51:01;0.80;;;0.40;;
76552;SDS011;65395;53.168;18.156;2023-10-08T08:53:28;1.40;;;0.40;;
76552;SDS011;65395;53.168;18.156;2023-10-08T08:55:55;1.30;;;0.50;;
76552;SDS011;65395;53.168;18.156;2023-10-08T08:58:22;1.10;;;0.50;;
76552;SDS011;65395;53.168;18.156;2023-10-08T09:00:52;1.70;;;0.50;;
76552;SDS011;65395;53.168;18.156;2023-10-08T09:03:20;0.90;;;0.30;;
76552;SDS011;65395;53.168;18.156;2023-10-08T09:05:57;1.70;;;0.50;;
76552;SDS011;65395;53.168;18.156;2023-10-08T09:08:28;1.20;;;0.50;;
76552;SDS011;65395;53.168;18.156;2023-10-08T09:10:59;1.20;;;0.40;;
76552;SDS011;65395;53.168;18.156;2023-10-08T09:13:27;3.70;;;0.50;;
76552;SDS011;65395;53.168;18.156;2023-10-08T09:16:07;2.80;;;0.50;;
76552;SDS011;65395;53.168;18.156;2023-10-08T09:18:37;1.40;;;0.30;;
76552;SDS011;65395;53.168;18.156;2023-10-08T09:21:13;1.50;;;0.40;;
76552;SDS011;65395;53.168;18.156;2023-10-08T09:23:42;0.90;;;0.40;;
76552;SDS011;65395;53.168;18.156;2023-10-08T09:26:10;1.10;;;0.40;;
76552;SDS011;65395;53.168;18.156;2023-10-08T09:28:40;0.70;;;0.40;;
76552;SDS011;65395;53.168;18.156;2023-10-08T09:31:13;1.00;;;0.40;;
76552;SDS011;65395;53.168;18.156;2023-10-08T09:33:40;1.00;;;0.40;;
76552;SDS011;65395;53.168;18.156;2023-10-08T09:36:10;1.50;;;0.50;;
76552;SDS011;65395;53.168;18.156;2023-10-08T09:38:45;1.60;;;0.60;;
76552;SDS011;65395;53.168;18.156;2023-10-08T09:41:14;2.60;;;0.50;;
76552;SDS011;65395;53.168;18.156;2023-10-08T09:43:42;0.90;;;0.50;;
76552;SDS011;65395;53.168;18.156;2023-10-08T09:46:13;1.40;;;0.50;;
76552;SDS011;65395;53.168;18.156;2023-10-08T09:48:48;1.50;;;0.50;;
76552;SDS011;65395;53.168;18.156;2023-10-08T09:51:19;0.50;;;0.30;;
76552;SDS011;65395;53.168;18.156;2023-10-08T09:53:51;1.30;;;0.50;;
76552;SDS011;65395;53.168;18.156;2023-10-08T09:56:29;1.50;;;0.40;;
76552;SDS011;65395;53.168;18.156;2023-10-08T09:58:58;3.00;;;0.40;;
76552;SDS011;65395;53.168;18.156;2023-10-08T10:01:25;1.70;;;0.60;;
76552;SDS011;65395;53.168;18.156;2023-10-08T10:03:53;2.30;;;0.60;;
76552;SDS011;65395;53.168;18.156;2023-10-08T10:06:22;1.20;;;0.40;;
76552;SDS011;65395;53.168;18.156;2023-10-08T10:08:49;0.90;;;0.50;;
76552;SDS011;65395;53.168;18.156;2023-10-08T10:11:16;1.20;;;0.50;;
76552;SDS011;65395;53.168;18.156;2023-10-08T10:13:44;1.30;;;0.40;;
76552;SDS011;65395;53.168;18.156;2023-10-08T10:16:17;1.90;;;0.40;;
76552;SDS011;65395;53.168;18.156;2023-10-08T10:18:45;1.70;;;0.60;;
76552;SDS011;65395;53.168;18.156;2023-10-08T10:21:24;2.20;;;0.60;;
76552;SDS011;65395;53.168;18.156;2023-10-08T10:23:53;1.10;;;0.60;;
76552;SDS011;65395;53.168;18.156;2023-10-08T10:26:25;1.20;;;0.60;;
76552;SDS011;65395;53.168;18.156;2023-10-08T10:29:22;2.40;;;0.50;;
76552;SDS011;65395;53.168;18.156;2023-10-08T10:31:46;1.40;;;0.40;;
76552;SDS011;65395;53.168;18.156;2023-10-08T10:34:16;3.50;;;0.50;;
76552;SDS011;65395;53.168;18.156;2023-10-08T10:36:45;1.10;;;0.40;;
76552;SDS011;65395;53.168;18.156;2023-10-08T10:39:16;1.30;;;0.50;;
76552;SDS011;65395;53.168;18.156;2023-10-08T10:41:53;1.20;;;0.40;;
76552;SDS011;65395;53.168;18.156;2023-10-08T10:44:28;1.90;;;0.40;;
76552;SDS011;65395;53.168;18.156;2023-10-08T10:46:57;0.90;;;0.40;;
76552;SDS011;65395;53.168;18.156;2023-10-08T10:49:35;1.30;;;0.50;;
76552;SDS011;65395;53.168;18.156;2023-10-08T10:52:03;1.70;;;0.40;;
76552;SDS011;65395;53.168;18.156;2023-10-08T10:54:32;1.80;;;0.40;;
76552;SDS011;65395;53.168;18.156;2023-10-08T10:57:02;3.50;;;0.50;;
76552;SDS011;65395;53.168;18.156;2023-10-08T10:59:29;1.90;;;0.40;;
76552;SDS011;65395;53.168;18.156;2023-10-08T11:02:03;1.60;;;0.40;;
76552;SDS011;65395;53.168;18.156;2023-10-08T11:04:34;1.00;;;0.40;;
76552;SDS011;65395;53.168;18.156;2023-10-08T11:07:11;0.70;;;0.40;;
76552;SDS011;65395;53.168;18.156;2023-10-08T11:09:38;0.70;;;0.40;;
76552;SDS011;65395;53.168;18.156;2023-10-08T11:12:12;3.20;;;0.40;;
76552;SDS011;65395;53.168;18.156;2023-10-08T11:14:41;1.50;;;0.50;;
76552;SDS011;65395;53.168;18.156;2023-10-08T11:17:09;0.90;;;0.40;;
76552;SDS011;65395;53.168;18.156;2023-10-08T11:19:43;2.10;;;0.40;;
76552;SDS011;65395;53.168;18.156;2023-10-08T11:22:12;1.00;;;0.40;;
76552;SDS011;65395;53.168;18.156;2023-10-08T11:24:43;1.90;;;0.60;;
76552;SDS011;65395;53.168;18.156;2023-10-08T11:27:15;1.40;;;0.60;;
76552;SDS011;65395;53.168;18.156;2023-10-08T11:29:45;0.90;;;0.40;;
76552;SDS011;65395;53.168;18.156;2023-10-08T11:32:15;0.80;;;0.40;;
76552;SDS011;65395;53.168;18.156;2023-10-08T11:34:47;0.90;;;0.50;;
76552;SDS011;65395;53.168;18.156;2023-10-08T11:39:54;0.70;;;0.40;;
76552;SDS011;65395;53.168;18.156;2023-10-08T11:42:25;3.50;;;0.40;;
76552;SDS011;65395;53.168;18.156;2023-10-08T11:45:07;0.90;;;0.50;;
76552;SDS011;65395;53.168;18.156;2023-10-08T11:47:45;1.60;;;0.40;;
76552;SDS011;65395;53.168;18.156;2023-10-08T11:50:15;0.70;;;0.40;;
76552;SDS011;65395;53.168;18.156;2023-10-08T11:52:45;2.10;;;0.40;;
76552;SDS011;65395;53.168;18.156;2023-10-08T11:55:13;0.60;;;0.40;;
76552;SDS011;65395;53.168;18.156;2023-10-08T11:57:45;0.60;;;0.40;;
76552;SDS011;65395;53.168;18.156;2023-10-08T12:00:15;0.80;;;0.50;;
76552;SDS011;65395;53.168;18.156;2023-10-08T12:02:46;0.70;;;0.40;;
76552;SDS011;65395;53.168;18.156;2023-10-08T12:05:13;0.80;;;0.40;;
76552;SDS011;65395;53.168;18.156;2023-10-08T12:07:50;0.80;;;0.40;;
76552;SDS011;65395;53.168;18.156;2023-10-08T12:10:18;2.40;;;0.40;;
76552;SDS011;65395;53.168;18.156;2023-10-08T12:12:51;1.90;;;0.50;;
76552;SDS011;65395;53.168;18.156;2023-10-08T12:15:19;0.80;;;0.30;;
76552;SDS011;65395;53.168;18.156;2023-10-08T12:17:48;4.00;;;0.60;;
76552;SDS011;65395;53.168;18.156;2023-10-08T12:20:35;0.90;;;0.40;;
76552;SDS011;65395;53.168;18.156;2023-10-08T12:23:05;1.10;;;0.50;;
76552;SDS011;65395;53.168;18.156;2023-10-08T12:25:32;0.90;;;0.40;;
76552;SDS011;65395;53.168;18.156;2023-10-08T12:28:00;2.70;;;0.50;;
76552;SDS011;65395;53.168;18.156;2023-10-08T12:30:30;1.20;;;0.30;;
76552;SDS011;65395;53.168;18.156;2023-10-08T12:32:58;1.30;;;0.50;;
76552;SDS011;65395;53.168;18.156;2023-10-08T12:35:26;1.10;;;0.40;;
76552;SDS011;65395;53.168;18.156;2023-10-08T12:37:55;1.10;;;0.50;;
76552;SDS011;65395;53.168;18.156;2023-10-08T12:40:23;1.10;;;0.50;;
76552;SDS011;65395;53.168;18.156;2023-10-08T12:42:51;2.20;;;1.20;;
76552;SDS011;65395;53.168;18.156;2023-10-08T12:45:19;1.10;;;0.70;;
76552;SDS011;65395;53.168;18.156;2023-10-08T12:47:48;2.20;;;0.50;;
76552;SDS011;65395;53.168;18.156;2023-10-08T12:50:17;1.30;;;0.50;;
76552;SDS011;65395;53.168;18.156;2023-10-08T12:52:50;1.60;;;0.90;;
76552;SDS011;65395;53.168;18.156;2023-10-08T12:55:22;1.60;;;0.80;;
76552;SDS011;65395;53.168;18.156;2023-10-08T12:57:51;0.80;;;0.60;;
76552;SDS011;65395;53.168;18.156;2023-10-08T13:00:36;0.90;;;0.60;;
76552;SDS011;65395;53.168;18.156;2023-10-08T13:03:04;5.70;;;0.60;;
76552;SDS011;65395;53.168;18.156;2023-10-08T13:05:33;1.00;;;0.50;;
76552;SDS011;65395;53.168;18.156;2023-10-08T13:08:00;4.20;;;2.00;;
76552;SDS011;65395;53.168;18.156;2023-10-08T13:10:35;4.30;;;3.00;;
76552;SDS011;65395;53.168;18.156;2023-10-08T13:13:07;3.90;;;1.50;;
76552;SDS011;65395;53.168;18.156;2023-10-08T13:15:34;1.90;;;0.70;;
76552;SDS011;65395;53.168;18.156;2023-10-08T13:18:01;2.60;;;0.70;;
76552;SDS011;65395;53.168;18.156;2023-10-08T13:20:29;2.90;;;0.60;;
76552;SDS011;65395;53.168;18.156;2023-10-08T13:23:00;1.30;;;0.40;;
76552;SDS011;65395;53.168;18.156;2023-10-08T13:25:27;1.30;;;0.50;;
76552;SDS011;65395;53.168;18.156;2023-10-08T13:27:56;1.20;;;0.50;;
76552;SDS011;65395;53.168;18.156;2023-10-08T13:30:23;0.60;;;0.50;;
76552;SDS011;65395;53.168;18.156;2023-10-08T13:32:50;0.50;;;0.50;;
76552;SDS011;65395;53.168;18.156;2023-10-08T13:35:17;1.60;;;0.70;;
76552;SDS011;65395;53.168;18.156;2023-10-08T13:37:44;0.70;;;0.40;;
76552;SDS011;65395;53.168;18.156;2023-10-08T13:40:14;1.50;;;0.70;;
76552;SDS011;65395;53.168;18.156;2023-10-08T13:42:42;2.80;;;0.60;;
76552;SDS011;65395;53.168;18.156;2023-10-08T13:45:09;0.90;;;0.40;;
76552;SDS011;65395;53.168;18.156;2023-10-08T13:47:42;2.40;;;0.40;;
76552;SDS011;65395;53.168;18.156;2023-10-08T13:50:09;3.00;;;0.60;;
76552;SDS011;65395;53.168;18.156;2023-10-08T13:52:39;1.90;;;0.50;;
76552;SDS011;65395;53.168;18.156;2023-10-08T13:55:06;2.30;;;0.50;;
76552;SDS011;65395;53.168;18.156;2023-10-08T13:57:40;0.90;;;0.50;;
76552;SDS011;65395;53.168;18.156;2023-10-08T14:00:09;1.80;;;0.50;;
76552;SDS011;65395;53.168;18.156;2023-10-08T14:02:42;1.50;;;0.60;;
76552;SDS011;65395;53.168;18.156;2023-10-08T14:05:11;2.10;;;0.50;;
76552;SDS011;65395;53.168;18.156;2023-10-08T14:07:41;1.30;;;0.50;;
76552;SDS011;65395;53.168;18.156;2023-10-08T14:10:10;1.90;;;0.70;;
76552;SDS011;65395;53.168;18.156;2023-10-08T14:12:45;1.30;;;0.60;;
76552;SDS011;65395;53.168;18.156;2023-10-08T14:15:16;1.10;;;0.60;;
76552;SDS011;65395;53.168;18.156;2023-10-08T14:17:44;0.50;;;0.40;;
76552;SDS011;65395;53.168;18.156;2023-10-08T14:20:15;1.40;;;0.60;;
76552;SDS011;65395;53.168;18.156;2023-10-08T14:22:48;1.00;;;0.50;;
76552;SDS011;65395;53.168;18.156;2023-10-08T14:25:26;2.00;;;0.50;;
76552;SDS011;65395;53.168;18.156;2023-10-08T14:27:54;1.10;;;0.50;;
76552;SDS011;65395;53.168;18.156;2023-10-08T14:30:31;2.70;;;0.50;;
76552;SDS011;65395;53.168;18.156;2023-10-08T14:33:01;1.30;;;0.70;;
76552;SDS011;65395;53.168;18.156;2023-10-08T14:35:29;1.10;;;0.60;;
76552;SDS011;65395;53.168;18.156;2023-10-08T14:38:06;1.10;;;0.60;;
76552;SDS011;65395;53.168;18.156;2023-10-08T14:40:47;1.30;;;0.60;;
76552;SDS011;65395;53.168;18.156;2023-10-08T14:43:24;1.20;;;0.60;;
76552;SDS011;65395;53.168;18.156;2023-10-08T14:45:50;3.70;;;0.70;;
76552;SDS011;65395;53.168;18.156;2023-10-08T14:48:19;1.50;;;0.60;;
76552;SDS011;65395;53.168;18.156;2023-10-08T14:50:46;2.00;;;0.90;;
76552;SDS011;65395;53.168;18.156;2023-10-08T14:53:14;2.20;;;0.80;;
76552;SDS011;65395;53.168;18.156;2023-10-08T14:55:41;2.90;;;0.80;;
76552;SDS011;65395;53.168;18.156;2023-10-08T14:58:08;1.20;;;0.60;;
76552;SDS011;65395;53.168;18.156;2023-10-08T15:00:37;2.70;;;0.50;;
76552;SDS011;65395;53.168;18.156;2023-10-08T15:03:05;1.60;;;0.80;;